Time;durP1;ratioP1;P1;durP2;ratioP2;P2;SDS_P1;SDS_P2;PMS_P1;PMS_P2;Temp;Humidity;BMP_temperature;BMP_pressure;BME280_temperature;BME280_humidity;BME280_pressure;Samples;Min_cycle;Max_cycle;Signal;HPM_P1;HPM_P2
2021/05/12 00:02:16;;;;;;;6.82;5.00;;;17.30;99.90;;;;;;5096570;28;20166;-74
2021/05/12 00:04:42;;;;;;;5.88;4.35;;;17.20;99.90;;;;;;5087485;28;20052;-75
2021/05/12 00:07:07;;;;;;;5.05;4.55;;;17.10;99.90;;;;;;5100396;28;20046;-74
2021/05/12 00:09:33;;;;;;;4.72;4.32;;;17.10;99.90;;;;;;5086966;28;20048;-74
2021/05/12 00:11:58;;;;;;;6.63;4.82;;;17.10;99.90;;;;;;5090882;28;20504;-74
2021/05/12 00:14:24;;;;;;;5.03;4.53;;;17.10;99.90;;;;;;5102114;28;20016;-74
2021/05/12 00:16:50;;;;;;;5.32;4.35;;;17.00;99.90;;;;;;5091788;28;20050;-73
2021/05/12 00:19:18;;;;;;;5.10;4.60;;;16.90;99.90;;;;;;5089256;28;20025;-74
2021/05/12 00:21:48;;;;;;;5.43;4.82;;;16.90;99.90;;;;;;5089228;28;20111;-74
2021/05/12 00:24:14;;;;;;;6.25;5.43;;;16.80;99.90;;;;;;5090681;28;20024;-74
2021/05/12 00:26:41;;;;;;;7.88;6.07;;;16.80;99.90;;;;;;5091496;28;20035;-73
2021/05/12 00:29:14;;;;;;;7.32;6.55;;;16.80;99.90;;;;;;5093991;28;20086;-73
2021/05/12 00:31:41;;;;;;;8.77;6.68;;;16.80;99.90;;;;;;5092682;28;20070;-74
2021/05/12 00:34:07;;;;;;;7.05;6.35;;;16.60;99.90;;;;;;5088405;28;20024;-75
2021/05/12 00:36:33;;;;;;;7.85;7.13;;;16.60;99.90;;;;;;5098601;28;20049;-73
2021/05/12 00:39:01;;;;;;;8.20;7.32;;;16.60;99.90;;;;;;5091460;28;20027;-74
2021/05/12 00:41:27;;;;;;;8.82;7.80;;;16.70;99.90;;;;;;5083773;28;20083;-74
2021/05/12 00:43:53;;;;;;;9.85;8.13;;;16.70;99.90;;;;;;5092894;28;20055;-74
2021/05/12 00:46:18;;;;;;;10.73;8.43;;;16.70;99.90;;;;;;5097464;28;20118;-74
2021/05/12 00:48:56;;;;;;;8.82;7.93;;;16.70;99.90;;;;;;5092455;28;20584;-74
2021/05/12 00:51:21;;;;;;;10.32;8.07;;;16.70;99.90;;;;;;5096836;28;20039;-74
2021/05/12 00:53:47;;;;;;;10.40;8.30;;;16.60;99.90;;;;;;5087646;28;20110;-73
2021/05/12 00:56:12;;;;;;;10.38;8.05;;;16.60;99.90;;;;;;5089659;28;20089;-74
2021/05/12 00:58:38;;;;;;;8.77;7.88;;;16.60;99.90;;;;;;5074362;28;20522;-74
2021/05/12 01:01:04;;;;;;;9.52;6.93;;;16.50;99.90;;;;;;5086777;28;20056;-74
2021/05/12 01:03:30;;;;;;;10.02;7.95;;;16.50;99.90;;;;;;5089689;28;20036;-74
2021/05/12 01:05:55;;;;;;;8.85;7.07;;;16.40;99.90;;;;;;5096210;28;20081;-74
2021/05/12 01:08:21;;;;;;;9.38;7.13;;;16.40;99.90;;;;;;5085764;28;20388;-74
2021/05/12 01:10:47;;;;;;;7.20;6.45;;;16.20;99.90;;;;;;5096667;28;20019;-73
2021/05/12 01:13:14;;;;;;;8.27;6.15;;;16.20;99.90;;;;;;5084703;28;20040;-73
2021/05/12 01:15:40;;;;;;;8.07;6.15;;;16.10;99.90;;;;;;5096036;28;20019;-74
2021/05/12 01:18:18;;;;;;;7.35;6.10;;;16.00;99.90;;;;;;5092666;28;20032;-73
2021/05/12 01:20:58;;;;;;;9.05;6.45;;;16.00;99.90;;;;;;5099815;28;20024;-73
2021/05/12 01:23:26;;;;;;;6.43;5.83;;;16.00;99.90;;;;;;5099419;28;20151;-74
2021/05/12 01:25:54;;;;;;;6.97;6.25;;;16.00;99.90;;;;;;5098130;28;20035;-74
2021/05/12 01:28:22;;;;;;;7.80;6.05;;;16.00;99.90;;;;;;5084620;28;20032;-73
2021/05/12 01:30:58;;;;;;;6.90;5.80;;;15.90;99.90;;;;;;5099106;28;20051;-73
2021/05/12 01:33:25;;;;;;;8.05;6.30;;;15.90;99.90;;;;;;5099894;28;20034;-75
2021/05/12 01:35:51;;;;;;;8.25;6.45;;;15.90;99.90;;;;;;5088903;28;20446;-73
2021/05/12 01:38:17;;;;;;;6.28;5.53;;;16.00;99.90;;;;;;5088476;28;20503;-74
2021/05/12 01:40:44;;;;;;;9.70;6.63;;;15.90;99.90;;;;;;5083358;28;20029;-73
2021/05/12 01:43:10;;;;;;;7.18;6.28;;;15.80;99.90;;;;;;5093749;28;20051;-73
2021/05/12 01:45:35;;;;;;;6.88;6.18;;;15.80;99.90;;;;;;5085765;28;20457;-73
2021/05/12 01:48:09;;;;;;;7.13;6.30;;;15.70;99.90;;;;;;5086023;28;20879;-75
2021/05/12 01:50:35;;;;;;;6.82;6.22;;;15.80;99.90;;;;;;5076255;28;20028;-72
2021/05/12 01:53:01;;;;;;;7.30;5.97;;;15.90;99.90;;;;;;5079390;28;20036;-72
2021/05/12 01:55:27;;;;;;;8.00;6.60;;;15.90;99.90;;;;;;5084172;28;20024;-73
2021/05/12 01:57:52;;;;;;;8.82;6.68;;;15.90;99.90;;;;;;5083521;28;20069;-74
2021/05/12 02:00:30;;;;;;;7.00;6.15;;;15.80;99.90;;;;;;5085463;28;20029;-73
2021/05/12 02:02:56;;;;;;;6.72;5.88;;;15.80;99.90;;;;;;5084146;28;20117;-74
2021/05/12 02:05:23;;;;;;;7.95;5.97;;;15.80;99.90;;;;;;5084988;28;20073;-73
2021/05/12 02:07:53;;;;;;;8.63;6.28;;;15.70;99.90;;;;;;5084500;28;20051;-73
2021/05/12 02:10:19;;;;;;;6.70;5.38;;;15.70;99.90;;;;;;5078533;28;20139;-73
2021/05/12 02:12:45;;;;;;;6.65;5.35;;;15.70;99.90;;;;;;5086485;28;20581;-73
2021/05/12 02:15:12;;;;;;;7.63;6.07;;;15.60;99.90;;;;;;5094107;28;20035;-74
2021/05/12 02:17:38;;;;;;;7.03;5.88;;;15.60;99.90;;;;;;5096091;28;20250;-74
2021/05/12 02:20:05;;;;;;;7.25;5.55;;;15.70;99.90;;;;;;5099723;28;20071;-74
2021/05/12 02:22:31;;;;;;;6.53;4.95;;;15.80;99.90;;;;;;5090938;28;20032;-73
2021/05/12 02:24:56;;;;;;;6.95;5.97;;;15.70;99.90;;;;;;5092594;28;20135;-73
2021/05/12 02:27:22;;;;;;;8.68;6.03;;;15.60;99.90;;;;;;5086386;28;20028;-73
2021/05/12 02:29:47;;;;;;;7.38;5.57;;;15.50;99.90;;;;;;5096203;28;20073;-73
2021/05/12 02:32:13;;;;;;;6.95;5.75;;;15.30;99.90;;;;;;5090925;28;20055;-74
2021/05/12 02:34:38;;;;;;;7.57;5.57;;;15.30;99.90;;;;;;5086781;28;20486;-74
2021/05/12 02:37:04;;;;;;;7.13;5.22;;;15.40;99.90;;;;;;5084461;28;20052;-74
2021/05/12 02:39:29;;;;;;;6.70;5.05;;;15.40;99.90;;;;;;5078524;28;20107;-73
2021/05/12 02:41:56;;;;;;;6.65;5.93;;;15.30;99.90;;;;;;5093211;28;20286;-74
2021/05/12 02:44:21;;;;;;;6.70;5.78;;;15.40;99.90;;;;;;5091150;28;20024;-74
2021/05/12 02:46:47;;;;;;;7.13;5.22;;;15.40;99.90;;;;;;5088547;28;20432;-73
2021/05/12 02:49:13;;;;;;;7.30;5.10;;;15.40;99.90;;;;;;5085873;28;20039;-73
2021/05/12 02:51:39;;;;;;;8.30;5.63;;;15.40;99.90;;;;;;5091058;28;20043;-73
2021/05/12 02:54:05;;;;;;;10.52;5.28;;;15.40;99.90;;;;;;5086620;28;20044;-74
2021/05/12 02:56:30;;;;;;;7.03;5.05;;;15.50;99.90;;;;;;5097311;28;20016;-74
2021/05/12 02:58:55;;;;;;;7.45;4.93;;;15.50;99.90;;;;;;5090910;28;20405;-73
2021/05/12 03:01:21;;;;;;;6.32;4.95;;;15.40;99.90;;;;;;5078571;28;20025;-73
2021/05/12 03:03:47;;;;;;;8.38;5.00;;;15.50;99.90;;;;;;5082665;28;20024;-73
2021/05/12 03:06:12;;;;;;;7.15;5.43;;;15.40;99.90;;;;;;5089613;28;20290;-74
2021/05/12 03:08:39;;;;;;;8.30;6.00;;;15.40;99.90;;;;;;5080871;28;20045;-74
2021/05/12 03:11:04;;;;;;;8.40;5.55;;;15.30;99.90;;;;;;5087272;28;20042;-74
2021/05/12 03:13:30;;;;;;;7.88;4.78;;;15.30;99.90;;;;;;5090150;28;20028;-74
2021/05/12 03:15:55;;;;;;;8.35;5.78;;;15.20;99.90;;;;;;5079196;28;20028;-74
2021/05/12 03:18:21;;;;;;;6.18;5.30;;;15.20;99.90;;;;;;5084306;28;20024;-74
2021/05/12 03:20:47;;;;;;;8.43;5.13;;;15.20;99.90;;;;;;5088254;28;20027;-74
2021/05/12 03:23:12;;;;;;;6.80;4.43;;;15.10;99.90;;;;;;5086736;28;20434;-74
2021/05/12 03:25:38;;;;;;;6.20;4.75;;;15.20;99.90;;;;;;5092673;28;20031;-74
2021/05/12 03:28:04;;;;;;;6.28;4.80;;;15.20;99.90;;;;;;5096575;28;20390;-74
2021/05/12 03:30:36;;;;;;;5.82;4.65;;;15.20;99.90;;;;;;5091380;28;20051;-74
2021/05/12 03:33:02;;;;;;;;;;;15.30;99.90;;;;;;5086685;28;20108;-74
2021/05/12 03:35:29;;;;;;;5.57;4.60;;;15.20;99.90;;;;;;5084583;28;21535;-74
2021/05/12 03:37:59;;;;;;;7.50;4.05;;;15.20;99.90;;;;;;5096037;28;20102;-74
2021/05/12 03:40:26;;;;;;;5.35;4.13;;;15.20;99.90;;;;;;5086422;28;20035;-74
2021/05/12 03:42:52;;;;;;;4.60;3.47;;;15.10;99.90;;;;;;5089563;28;20077;-74
2021/05/12 03:45:17;;;;;;;3.92;3.22;;;15.20;99.90;;;;;;5090763;28;20036;-73
2021/05/12 03:47:43;;;;;;;7.07;3.25;;;15.10;99.90;;;;;;5082702;28;20028;-73
2021/05/12 03:50:10;;;;;;;4.03;3.17;;;15.20;99.90;;;;;;5085106;28;20032;-74
2021/05/12 03:52:36;;;;;;;5.70;3.65;;;15.10;99.90;;;;;;5079863;28;20475;-73
2021/05/12 03:55:04;;;;;;;5.53;3.63;;;15.00;99.90;;;;;;5085758;28;20107;-73
2021/05/12 03:57:29;;;;;;;4.35;3.33;;;15.10;99.90;;;;;;5080572;28;20047;-74
2021/05/12 03:59:55;;;;;;;4.95;3.65;;;15.00;99.90;;;;;;5081867;28;20028;-74
2021/05/12 04:02:21;;;;;;;5.43;3.38;;;15.10;99.90;;;;;;5091087;28;20032;-74
2021/05/12 04:04:46;;;;;;;4.53;2.80;;;15.20;99.90;;;;;;5090835;28;20024;-73
2021/05/12 04:07:12;;;;;;;4.15;2.83;;;15.30;99.90;;;;;;5089610;28;20021;-74
2021/05/12 04:09:37;;;;;;;5.13;3.53;;;15.20;99.90;;;;;;5092795;28;20405;-73
2021/05/12 04:12:04;;;;;;;6.95;3.50;;;15.20;99.90;;;;;;5095635;28;20736;-74
2021/05/12 04:14:29;;;;;;;6.68;4.22;;;15.20;99.90;;;;;;5100104;28;20498;-73
2021/05/12 04:16:55;;;;;;;5.70;3.50;;;15.20;99.90;;;;;;5099541;28;20028;-74
2021/05/12 04:19:21;;;;;;;5.60;3.58;;;14.90;99.90;;;;;;5105489;28;20024;-74
2021/05/12 04:21:46;;;;;;;5.10;3.58;;;14.80;99.90;;;;;;5097083;28;20351;-73
2021/05/12 04:24:12;;;;;;;7.00;3.35;;;15.10;99.90;;;;;;5093084;28;20141;-74
2021/05/12 04:26:38;;;;;;;4.97;3.20;;;15.10;99.90;;;;;;5092324;28;20032;-74
2021/05/12 04:29:05;;;;;;;5.63;3.20;;;15.40;99.90;;;;;;5087614;28;20059;-74
2021/05/12 04:31:32;;;;;;;5.40;3.65;;;15.30;99.90;;;;;;5095269;28;20111;-73
2021/05/12 04:33:58;;;;;;;4.43;3.22;;;15.30;99.90;;;;;;5080629;28;20635;-73
2021/05/12 04:36:24;;;;;;;5.57;3.53;;;15.10;99.90;;;;;;5085287;28;20158;-73
2021/05/12 04:38:51;;;;;;;6.22;3.17;;;15.20;99.90;;;;;;5081796;28;20028;-73
2021/05/12 04:41:18;;;;;;;4.32;3.42;;;15.30;99.90;;;;;;5090793;28;20109;-73
2021/05/12 04:43:45;;;;;;;4.70;3.30;;;15.40;99.90;;;;;;5080649;28;20028;-73
2021/05/12 04:46:11;;;;;;;5.05;3.50;;;15.40;99.90;;;;;;5080353;28;20064;-73
2021/05/12 04:48:36;;;;;;;5.57;3.95;;;15.40;99.90;;;;;;5079764;28;20120;-74
2021/05/12 04:51:02;;;;;;;5.97;3.42;;;15.40;99.90;;;;;;5092835;28;20070;-73
2021/05/12 04:53:27;;;;;;;5.25;3.85;;;15.40;99.90;;;;;;5083641;28;20027;-73
2021/05/12 04:55:54;;;;;;;5.15;3.70;;;15.40;99.90;;;;;;5092575;28;20028;-73
2021/05/12 04:58:20;;;;;;;6.63;3.30;;;15.40;99.90;;;;;;5096574;28;20111;-74
2021/05/12 05:00:46;;;;;;;5.20;3.83;;;15.50;99.90;;;;;;5083492;28;20080;-73
2021/05/12 05:03:12;;;;;;;8.05;5.22;;;15.40;99.90;;;;;;5079355;28;20464;-73
2021/05/12 05:05:37;;;;;;;4.50;3.75;;;15.40;99.90;;;;;;5093999;28;20073;-73
2021/05/12 05:08:03;;;;;;;6.88;3.85;;;15.40;99.90;;;;;;5084381;28;20028;-74
2021/05/12 05:10:28;;;;;;;7.00;4.20;;;15.40;99.90;;;;;;5085933;28;20068;-74
2021/05/12 05:12:55;;;;;;;4.80;3.85;;;;;;;;;;5080872;28;20027;-74
2021/05/12 05:15:20;;;;;;;8.07;4.60;;;15.50;99.90;;;;;;5088347;28;20542;-74
2021/05/12 05:17:49;;;;;;;5.15;4.20;;;15.40;99.90;;;;;;5082694;28;20111;-74
2021/05/12 05:20:15;;;;;;;5.28;3.88;;;15.50;99.90;;;;;;5075933;28;20021;-73
2021/05/12 05:22:41;;;;;;;6.20;4.38;;;15.40;99.90;;;;;;5092123;28;20526;-73
2021/05/12 05:25:07;;;;;;;4.57;3.72;;;15.40;99.90;;;;;;5080775;28;20043;-73
2021/05/12 05:27:33;;;;;;;5.80;3.80;;;15.40;99.90;;;;;;5095018;28;20039;-73
2021/05/12 05:29:59;;;;;;;6.32;4.03;;;15.40;99.90;;;;;;5090555;28;20024;-73
2021/05/12 05:32:24;;;;;;;6.00;4.03;;;15.60;99.90;;;;;;5085330;28;20025;-75
2021/05/12 05:34:50;;;;;;;6.40;4.43;;;15.60;99.90;;;;;;5089928;28;20031;-73
2021/05/12 05:37:17;;;;;;;5.68;4.75;;;15.70;99.90;;;;;;5091672;28;20020;-74
2021/05/12 05:39:42;;;;;;;7.00;4.32;;;15.60;99.90;;;;;;5099373;28;20024;-75
2021/05/12 05:42:10;;;;;;;4.68;3.83;;;15.60;99.90;;;;;;5100462;28;20541;-73
2021/05/12 05:44:37;;;;;;;6.82;4.00;;;15.60;99.90;;;;;;5094454;28;20062;-73
2021/05/12 05:47:03;;;;;;;4.55;3.63;;;15.60;99.90;;;;;;5096685;28;20080;-73
2021/05/12 05:49:29;;;;;;;6.03;4.13;;;15.60;99.90;;;;;;5093997;28;20099;-73
2021/05/12 05:51:54;;;;;;;7.00;4.35;;;15.80;99.90;;;;;;5104215;28;20036;-73
2021/05/12 05:54:21;;;;;;;4.47;3.90;;;15.80;99.90;;;;;;5102585;28;20020;-74
2021/05/12 05:56:47;;;;;;;6.72;4.13;;;15.70;99.90;;;;;;5100459;28;20023;-74
2021/05/12 05:59:13;;;;;;;5.95;4.38;;;15.60;99.90;;;;;;5099013;28;20714;-75
2021/05/12 06:01:39;;;;;;;10.35;5.35;;;15.60;99.90;;;;;;5107372;28;20050;-75
2021/05/12 06:04:06;;;;;;;7.78;4.00;;;15.70;99.90;;;;;;5102134;28;20029;-76
2021/05/12 06:06:32;;;;;;;4.07;3.65;;;15.70;99.90;;;;;;5108037;28;20055;-75
2021/05/12 06:09:04;;;;;;;5.97;3.90;;;16.00;99.90;;;;;;5104062;28;20066;-76
2021/05/12 06:11:30;;;;;;;5.35;3.83;;;16.00;99.90;;;;;;5101260;28;20719;-76
2021/05/12 06:13:55;;;;;;;8.20;4.47;;;16.30;99.90;;;;;;5108331;28;20016;-76
2021/05/12 06:16:21;;;;;;;7.03;4.10;;;16.50;99.90;;;;;;5104255;28;20031;-77
2021/05/12 06:18:47;;;;;;;7.05;4.20;;;16.70;99.90;;;;;;5111060;28;20028;-77
2021/05/12 06:21:13;;;;;;;5.10;4.13;;;16.80;99.90;;;;;;5106945;28;20024;-76
2021/05/12 06:23:39;;;;;;;7.97;7.22;;;16.80;99.90;;;;;;5098884;28;20107;-76
2021/05/12 06:26:13;;;;;;;7.57;6.43;;;16.90;99.90;;;;;;5092773;28;20029;-76
2021/05/12 06:28:40;;;;;;;7.07;4.07;;;16.90;99.90;;;;;;5098057;28;20032;-75
2021/05/12 06:31:09;;;;;;;8.25;4.97;;;16.90;99.90;;;;;;5103596;28;20036;-74
2021/05/12 06:33:37;;;;;;;8.60;4.75;;;16.50;99.90;;;;;;5103441;28;20021;-74
2021/05/12 06:36:04;;;;;;;5.53;3.92;;;16.50;99.90;;;;;;5101455;28;20028;-76
2021/05/12 06:38:30;;;;;;;6.15;4.20;;;16.80;99.90;;;;;;5102147;28;20115;-75
2021/05/12 06:40:55;;;;;;;14.43;5.35;;;17.10;99.90;;;;;;5099163;28;20098;-76
2021/05/12 06:43:21;;;;;;;5.78;4.60;;;17.00;99.90;;;;;;5107456;28;20054;-76
2021/05/12 06:45:47;;;;;;;7.57;4.68;;;17.00;99.90;;;;;;5107386;28;20042;-76
2021/05/12 06:48:13;;;;;;;6.72;5.30;;;17.00;99.90;;;;;;5099748;28;20039;-76
2021/05/12 06:50:39;;;;;;;8.25;5.68;;;17.10;99.90;;;;;;5103760;28;20035;-76
2021/05/12 06:53:04;;;;;;;9.43;5.75;;;17.00;99.90;;;;;;5102112;28;20028;-77
2021/05/12 06:55:30;;;;;;;8.95;6.22;;;16.80;99.90;;;;;;5098567;28;20024;-76
2021/05/12 06:57:55;;;;;;;11.80;6.90;;;16.60;99.90;;;;;;5101256;28;20027;-76
2021/05/12 07:00:22;;;;;;;8.75;6.35;;;16.70;99.90;;;;;;5099513;28;20688;-79
2021/05/12 07:02:47;;;;;;;7.40;5.85;;;16.40;99.90;;;;;;5102790;28;20027;-80
2021/05/12 07:05:15;;;;;;;11.90;7.45;;;16.50;99.90;;;;;;5101410;28;20050;-78
2021/05/12 07:07:43;;;;;;;10.95;6.32;;;16.40;99.90;;;;;;5094793;27;20027;-71
2021/05/12 07:10:11;;;;;;;13.45;6.45;;;16.10;99.90;;;;;;5101859;28;20498;-75
2021/05/12 07:12:37;;;;;;;197.77;141.63;;;16.00;99.90;;;;;;5100221;28;20030;-76
2021/05/12 07:15:05;;;;;;;322.75;230.30;;;15.90;99.90;;;;;;5095734;28;20032;-75
2021/05/12 07:17:30;;;;;;;18.95;14.88;;;15.90;99.90;;;;;;5099680;27;20016;-74
2021/05/12 07:19:56;;;;;;;8.63;6.28;;;15.90;99.90;;;;;;5100529;28;20420;-75
2021/05/12 07:22:23;;;;;;;9.10;6.45;;;16.00;99.90;;;;;;5097146;28;20089;-73
2021/05/12 07:24:49;;;;;;;8.77;6.88;;;16.10;99.90;;;;;;5091463;28;20480;-72
2021/05/12 07:27:15;;;;;;;7.90;6.45;;;16.10;99.90;;;;;;5095036;28;20394;-73
2021/05/12 07:29:41;;;;;;;10.45;6.80;;;16.00;99.90;;;;;;5096484;28;20027;-73
2021/05/12 07:32:06;;;;;;;10.88;7.68;;;16.00;99.90;;;;;;5096366;28;20035;-73
2021/05/12 07:34:32;;;;;;;11.07;7.53;;;16.00;99.90;;;;;;5101444;28;20046;-74
2021/05/12 07:36:57;;;;;;;8.90;7.30;;;16.10;99.90;;;;;;5102656;28;20118;-74
2021/05/12 07:39:23;;;;;;;9.23;7.13;;;16.30;99.90;;;;;;5103942;28;20056;-73
2021/05/12 07:41:51;;;;;;;9.68;6.85;;;16.10;99.90;;;;;;5102365;28;20031;-74
2021/05/12 07:44:17;;;;;;;9.60;7.45;;;16.20;99.90;;;;;;5104721;28;20492;-75
2021/05/12 07:46:43;;;;;;;13.63;8.73;;;16.50;99.90;;;;;;5100301;28;20055;-75
2021/05/12 07:49:09;;;;;;;14.98;8.90;;;;;;;;;;5098500;28;20067;-73
2021/05/12 07:51:34;;;;;;;10.77;8.88;;;16.50;99.90;;;;;;5098309;28;20028;-73
2021/05/12 07:54:00;;;;;;;9.88;8.50;;;16.40;99.90;;;;;;5102412;28;20023;-73
2021/05/12 07:56:25;;;;;;;10.98;7.22;;;16.60;99.90;;;;;;5101793;28;20451;-73
2021/05/12 07:58:51;;;;;;;10.13;7.32;;;16.60;99.90;;;;;;5101913;28;20034;-73
2021/05/12 08:01:28;;;;;;;11.57;8.43;;;16.60;99.90;;;;;;5102136;28;20602;-75
2021/05/12 08:03:54;;;;;;;14.45;8.75;;;16.80;99.90;;;;;;5094717;28;20020;-75
2021/05/12 08:06:19;;;;;;;14.75;8.55;;;16.80;99.90;;;;;;5103442;28;20084;-73
2021/05/12 08:08:45;;;;;;;14.45;9.52;;;17.00;99.90;;;;;;5102776;28;20040;-74
2021/05/12 08:11:10;;;;;;;17.38;10.70;;;17.00;99.90;;;;;;5103077;28;20024;-73
2021/05/12 08:13:36;;;;;;;11.95;9.20;;;17.00;99.90;;;;;;5100657;28;20020;-74
2021/05/12 08:16:02;;;;;;;15.07;10.15;;;16.90;99.90;;;;;;5101101;28;20047;-73
2021/05/12 08:18:27;;;;;;;12.50;9.82;;;16.90;99.90;;;;;;5102453;28;20027;-73
2021/05/12 08:20:55;;;;;;;20.33;11.10;;;16.70;99.90;;;;;;5100012;28;20485;-74
2021/05/12 08:23:21;;;;;;;12.43;9.60;;;16.60;99.90;;;;;;5103016;28;20028;-74
2021/05/12 08:25:47;;;;;;;12.65;9.13;;;16.60;99.90;;;;;;5099360;28;20016;-73
2021/05/12 08:28:13;;;;;;;21.92;11.40;;;16.60;99.90;;;;;;5102048;28;20050;-74
2021/05/12 08:30:45;;;;;;;15.55;11.15;;;16.50;99.90;;;;;;5103156;28;20573;-73
2021/05/12 08:33:11;;;;;;;14.60;10.98;;;16.50;99.90;;;;;;5108030;28;20385;-74
2021/05/12 08:35:41;;;;;;;15.35;10.90;;;16.40;99.90;;;;;;5107695;28;20507;-73
2021/05/12 08:38:08;;;;;;;17.20;12.13;;;16.50;99.90;;;;;;5105667;28;20030;-73
2021/05/12 08:40:34;;;;;;;13.85;10.57;;;16.40;99.90;;;;;;5109014;28;20053;-75
2021/05/12 08:43:02;;;;;;;14.88;11.73;;;16.20;99.90;;;;;;5108801;28;20028;-73
2021/05/12 08:45:29;;;;;;;20.05;12.68;;;16.20;99.90;;;;;;5108525;28;20089;-74
2021/05/12 08:47:55;;;;;;;14.50;10.85;;;16.00;99.90;;;;;;5107448;28;20028;-73
2021/05/12 08:50:21;;;;;;;14.77;10.68;;;16.20;99.90;;;;;;5101957;28;20474;-73
2021/05/12 08:52:49;;;;;;;15.75;11.30;;;16.20;99.90;;;;;;5104185;28;20047;-74
2021/05/12 08:55:14;;;;;;;17.88;11.38;;;16.30;99.90;;;;;;5097076;28;20024;-73
2021/05/12 08:57:40;;;;;;;17.23;11.63;;;16.50;99.90;;;;;;5102952;28;20027;-74
2021/05/12 09:00:07;;;;;;;19.35;12.20;;;16.50;99.90;;;;;;5102386;28;20028;-74
2021/05/12 09:02:33;;;;;;;16.70;11.90;;;;;;;;;;5105830;28;20493;-73
2021/05/12 09:04:58;;;;;;;16.90;11.98;;;16.30;99.90;;;;;;5100957;28;20454;-78
2021/05/12 09:07:27;;;;;;;199.07;126.80;;;16.10;99.90;;;;;;5103929;28;20110;-79
2021/05/12 09:09:54;;;;;;;26.48;15.90;;;16.40;99.90;;;;;;5098369;28;20507;-74
2021/05/12 09:12:20;;;;;;;18.58;12.20;;;16.20;99.90;;;;;;5096976;28;20165;-74
2021/05/12 09:14:54;;;;;;;16.15;12.02;;;16.50;99.90;;;;;;5095263;28;20386;-75
2021/05/12 09:17:40;;;;;;;14.93;11.85;;;16.40;99.90;;;;;;5100712;28;20031;-74
2021/05/12 09:20:22;;;;;;;18.77;13.07;;;16.20;99.90;;;;;;5100641;28;20028;-74
2021/05/12 09:22:48;;;;;;;14.75;12.25;;;16.30;99.90;;;;;;5092690;28;20326;-73
2021/05/12 09:25:18;;;;;;;15.52;11.50;;;16.40;99.90;;;;;;5103781;28;20020;-74
2021/05/12 09:27:49;;;;;;;16.35;12.40;;;16.40;99.90;;;;;;5100112;28;20153;-76
2021/05/12 09:30:25;;;;;;;19.10;12.15;;;16.30;99.90;;;;;;5096262;28;20541;-74
2021/05/12 09:32:51;;;;;;;16.10;11.70;;;16.70;99.90;;;;;;5097563;28;20032;-74
2021/05/12 09:35:22;;;;;;;23.30;20.85;;;16.80;99.90;;;;;;5096564;28;20427;-74
2021/05/12 09:37:48;;;;;;;18.10;12.27;;;17.10;99.90;;;;;;5098520;28;20016;-74
2021/05/12 09:40:19;;;;;;;16.20;12.80;;;17.10;99.90;;;;;;5105007;28;20023;-73
2021/05/12 09:42:55;;;;;;;;;;;17.10;99.90;;;;;;5099401;28;20445;-74
2021/05/12 09:45:23;;;;;;;18.75;11.65;;;16.90;99.90;;;;;;5101363;28;19960;-74
2021/05/12 09:48:00;;;;;;;20.85;12.38;;;17.10;99.90;;;;;;5098369;28;20024;-74
2021/05/12 09:50:31;;;;;;;15.38;11.77;;;17.00;99.90;;;;;;5094135;28;20066;-75
2021/05/12 09:52:58;;;;;;;16.77;11.65;;;16.80;99.90;;;;;;5099611;28;20046;-74
2021/05/12 09:55:34;;;;;;;17.50;12.80;;;17.00;99.90;;;;;;5105519;28;20048;-75
2021/05/12 09:58:01;;;;;;;19.23;13.18;;;16.80;99.90;;;;;;5103943;28;20023;-74
2021/05/12 10:00:32;;;;;;;15.23;13.07;;;16.70;99.90;;;;;;5101760;28;20020;-73
2021/05/12 10:02:59;;;;;;;16.38;13.15;;;16.90;99.90;;;;;;5101362;28;20103;-74
2021/05/12 10:05:25;;;;;;;18.05;14.15;;;17.00;99.90;;;;;;5110426;28;20031;-74
2021/05/12 10:07:53;;;;;;;17.05;14.23;;;17.20;99.90;;;;;;5104587;28;20065;-74
2021/05/12 10:10:36;;;;;;;17.73;14.10;;;17.40;99.90;;;;;;5106947;28;20039;-74
2021/05/12 10:13:02;;;;;;;18.70;14.30;;;17.60;99.90;;;;;;5108779;28;20036;-75
2021/05/12 10:15:28;;;;;;;19.17;14.27;;;17.50;99.90;;;;;;5105950;28;20027;-74
2021/05/12 10:17:54;;;;;;;15.98;13.07;;;17.40;99.90;;;;;;5113209;28;20043;-74
2021/05/12 10:20:26;;;;;;;15.25;12.88;;;17.40;99.90;;;;;;5110269;28;20405;-75
2021/05/12 10:22:54;;;;;;;19.98;14.13;;;17.50;99.90;;;;;;5105138;28;20045;-74
2021/05/12 10:25:21;;;;;;;15.18;13.60;;;17.00;99.90;;;;;;5103315;28;20024;-74
2021/05/12 10:27:49;;;;;;;14.80;12.70;;;17.00;99.90;;;;;;5110214;28;20374;-74
2021/05/12 10:30:16;;;;;;;16.20;14.10;;;17.00;99.90;;;;;;5103388;28;20078;-74
2021/05/12 10:32:54;;;;;;;17.85;14.05;;;17.10;99.90;;;;;;5105899;28;20015;-74
2021/05/12 10:35:32;;;;;;;17.27;13.50;;;17.10;99.90;;;;;;5098640;28;20113;-74
2021/05/12 10:37:59;;;;;;;19.25;14.73;;;16.90;99.90;;;;;;5099097;28;20390;-74
2021/05/12 10:40:31;;;;;;;19.67;13.60;;;16.80;99.90;;;;;;5099850;28;20021;-74
2021/05/12 10:48:28;;;;;;;16.65;13.70;;;;;;;;;;5093994;28;20043;-73
2021/05/12 10:50:54;;;;;;;16.70;13.18;;;17.10;99.90;;;;;;5098443;28;20045;-74
2021/05/12 10:53:25;;;;;;;18.42;14.07;;;17.30;99.90;;;;;;5100816;28;20020;-74
2021/05/12 10:56:00;;;;;;;;;;;17.40;99.90;;;;;;5096715;28;20028;-74
2021/05/12 10:58:31;;;;;;;17.83;13.05;;;17.60;99.90;;;;;;5101356;28;20308;-73
2021/05/12 11:01:02;;;;;;;23.00;17.55;;;17.70;99.90;;;;;;5103122;28;20035;-73
2021/05/12 11:03:48;;;;;;;18.08;13.82;;;17.60;99.90;;;;;;5101583;28;20087;-75
2021/05/12 11:06:13;;;;;;;19.77;14.23;;;17.60;99.90;;;;;;5103006;28;20130;-74
2021/05/12 11:09:01;;;;;;;20.40;14.65;;;17.80;99.90;;;;;;5107942;28;20061;-74
2021/05/12 11:11:26;;;;;;;17.58;14.57;;;17.70;99.90;;;;;;5092872;28;20703;-75
2021/05/12 11:14:18;;;;;;;142.43;99.25;;;17.90;99.90;;;;;;5111452;28;20051;-78
2021/05/12 11:17:06;;;;;;;144.20;112.53;;;17.70;99.90;;;;;;5115265;28;20084;-79
2021/05/12 11:20:03;;;;;;;22.23;16.02;;;17.60;99.90;;;;;;5092951;28;20128;-75
2021/05/12 11:25:35;;;;;;;24.67;14.35;;;17.20;99.90;;;;;;5105569;28;20038;-73
2021/05/12 11:33:27;;;;;;;24.10;14.40;;;17.30;99.90;;;;;;5094742;28;20030;-74
2021/05/12 11:36:14;;;;;;;21.60;14.70;;;17.30;99.90;;;;;;5065551;28;20315;-73
2021/05/12 11:38:40;;;;;;;21.42;14.90;;;17.10;99.90;;;;;;5098680;28;20023;-73
2021/05/12 11:41:16;;;;;;;23.20;15.05;;;16.90;99.90;;;;;;5092007;28;20035;-74
2021/05/12 11:43:45;;;;;;;22.33;14.98;;;16.90;99.90;;;;;;5097433;28;20023;-74
2021/05/12 11:46:18;;;;;;;18.77;14.13;;;16.80;99.90;;;;;;5088279;28;20033;-74
2021/05/12 11:48:56;;;;;;;20.75;14.60;;;16.70;99.90;;;;;;5101303;28;20027;-73
2021/05/12 11:51:52;;;;;;;26.35;14.32;;;16.70;99.90;;;;;;5096089;28;20075;-73
2021/05/12 11:54:22;;;;;;;24.73;14.63;;;16.60;99.90;;;;;;5084951;28;20028;-74
2021/05/12 11:56:50;;;;;;;18.57;14.17;;;16.30;99.90;;;;;;5085284;28;20027;-73
2021/05/12 11:59:22;;;;;;;21.35;14.27;;;16.50;99.90;;;;;;5096472;28;20161;-74
2021/05/12 12:02:00;;;;;;;24.73;14.50;;;16.70;99.90;;;;;;5094453;28;20083;-72
2021/05/12 12:04:30;;;;;;;18.38;14.77;;;16.70;99.90;;;;;;5096118;28;20032;-74
2021/05/12 12:06:57;;;;;;;23.15;15.98;;;16.70;99.90;;;;;;5102505;28;20039;-74
2021/05/12 12:09:23;;;;;;;19.05;14.32;;;16.90;99.90;;;;;;5110350;28;20044;-73
2021/05/12 12:11:49;;;;;;;18.75;14.25;;;17.20;99.90;;;;;;5097113;28;20021;-74
2021/05/12 12:14:15;;;;;;;20.40;14.65;;;17.20;99.90;;;;;;5107822;28;20031;-74
2021/05/12 12:16:43;;;;;;;17.48;13.60;;;17.30;99.90;;;;;;5108880;28;20024;-74
2021/05/12 12:19:17;;;;;;;18.95;14.50;;;17.40;99.90;;;;;;5103488;28;20024;-74
2021/05/12 12:21:45;;;;;;;21.15;14.88;;;17.40;99.90;;;;;;5098991;28;20040;-74
2021/05/12 12:24:20;;;;;;;21.13;14.13;;;17.20;99.90;;;;;;5105662;28;20123;-74
2021/05/12 12:26:55;;;;;;;19.67;14.40;;;17.20;99.90;;;;;;5109838;28;20156;-75
2021/05/12 12:29:25;;;;;;;19.63;15.15;;;17.30;99.90;;;;;;5100834;28;20031;-77
2021/05/12 12:31:53;;;;;;;19.02;13.85;;;17.30;99.90;;;;;;5100025;28;20028;-73
2021/05/12 12:34:24;;;;;;;17.02;13.63;;;17.30;99.90;;;;;;5102177;28;20043;-73
2021/05/12 12:36:56;;;;;;;16.58;13.57;;;17.40;99.90;;;;;;5109101;28;20058;-76
2021/05/12 12:39:41;;;;;;;16.80;13.88;;;18.60;99.90;;;;;;5105794;28;20028;-75
2021/05/12 12:42:07;;;;;;;19.40;15.00;;;17.40;99.90;;;;;;5105628;28;20032;-75
2021/05/12 12:44:39;;;;;;;19.80;13.80;;;17.30;99.90;;;;;;5105989;28;20028;-73
2021/05/12 12:47:13;;;;;;;15.82;13.30;;;17.20;99.90;;;;;;5113407;28;20115;-75
2021/05/12 12:49:47;;;;;;;20.17;13.75;;;17.30;99.90;;;;;;5112880;28;20103;-76
2021/05/12 12:52:23;;;;;;;18.15;13.40;;;17.00;99.90;;;;;;5110773;28;20090;-75
2021/05/12 12:57:24;;;;;;;17.77;14.52;;;17.20;99.90;;;;;;5105565;28;20259;-76
2021/05/12 13:00:00;;;;;;;18.60;13.85;;;17.40;99.90;;;;;;5102401;28;20024;-74
2021/05/12 13:02:26;;;;;;;17.30;13.52;;;17.40;99.90;;;;;;5106147;28;20030;-74